Time;durP1;ratioP1;P1;durP2;ratioP2;P2;SDS_P1;SDS_P2;PMS_P1;PMS_P2;Temp;Humidity;BMP_temperature;BMP_pressure;BME280_temperature;BME280_humidity;BME280_pressure;Samples;Min_cycle;Max_cycle;Signal;HPM_P1;HPM_P2
2023/05/16 00:00:24;;;;;;;6.78;3.88;;;11.80;99.90;;;;;;5033386;28;20045;-74
2023/05/16 00:02:50;;;;;;;8.52;3.92;;;11.80;99.90;;;;;;5033511;28;20032;-74
2023/05/16 00:05:17;;;;;;;10.35;3.90;;;11.70;99.90;;;;;;5016499;28;20033;-74
2023/05/16 00:07:43;;;;;;;7.97;4.10;;;11.60;99.90;;;;;;5033230;28;20371;-74
2023/05/16 00:10:10;;;;;;;8.52;3.70;;;11.60;99.90;;;;;;4997437;28;20030;-75
2023/05/16 00:12:38;;;;;;;7.70;3.83;;;11.60;99.90;;;;;;5012831;28;20382;-74
2023/05/16 00:15:08;;;;;;;9.68;3.90;;;11.70;99.90;;;;;;5034253;28;20040;-74
2023/05/16 00:17:35;;;;;;;7.57;3.47;;;11.60;99.90;;;;;;5033234;28;20034;-74
2023/05/16 00:20:06;;;;;;;8.65;4.13;;;11.70;99.90;;;;;;5015971;28;20041;-74
2023/05/16 00:22:32;;;;;;;7.28;3.40;;;11.60;99.90;;;;;;4996993;28;20053;-74
2023/05/16 00:24:58;;;;;;;5.47;4.13;;;11.60;99.90;;;;;;5014805;28;20038;-74
2023/05/16 00:27:25;;;;;;;5.80;3.65;;;11.50;99.90;;;;;;5025942;28;20478;-74
2023/05/16 00:29:51;;;;;;;7.18;3.70;;;11.50;99.90;;;;;;5016811;28;20026;-74
2023/05/16 00:32:17;;;;;;;8.48;3.80;;;11.40;99.90;;;;;;5032167;28;20395;-74
2023/05/16 00:34:43;;;;;;;9.38;3.60;;;11.40;99.90;;;;;;5016290;28;20044;-74
2023/05/16 00:37:09;;;;;;;7.80;3.40;;;11.30;99.90;;;;;;5033843;28;20084;-74
2023/05/16 00:39:35;;;;;;;10.20;3.53;;;11.30;99.90;;;;;;5034471;28;20030;-74
2023/05/16 00:42:02;;;;;;;9.43;3.50;;;11.20;99.90;;;;;;5016274;28;20044;-74
2023/05/16 00:44:28;;;;;;;6.95;3.83;;;11.10;99.90;;;;;;5033979;28;20522;-74
2023/05/16 00:46:54;;;;;;;7.18;3.50;;;11.10;99.90;;;;;;5014993;28;20109;-74
2023/05/16 00:49:20;;;;;;;8.73;3.60;;;11.10;99.90;;;;;;5033101;28;20057;-74
2023/05/16 00:51:46;;;;;;;5.88;3.50;;;11.10;99.90;;;;;;5012942;28;20052;-74
2023/05/16 00:54:12;;;;;;;6.70;3.58;;;11.20;99.90;;;;;;5033620;28;20367;-74
2023/05/16 00:56:38;;;;;;;4.90;3.70;;;11.20;99.90;;;;;;5015816;28;20045;-74
2023/05/16 00:59:05;;;;;;;8.05;3.78;;;11.20;99.90;;;;;;5033913;28;20462;-74
2023/05/16 01:01:31;;;;;;;7.50;3.90;;;11.10;99.90;;;;;;5031746;28;20041;-74
2023/05/16 01:03:57;;;;;;;8.68;3.55;;;11.10;99.90;;;;;;4999187;28;20053;-74
2023/05/16 01:06:23;;;;;;;5.35;3.50;;;11.00;99.90;;;;;;5015797;28;20053;-74
2023/05/16 01:08:49;;;;;;;10.10;4.03;;;10.90;99.90;;;;;;4996320;28;20042;-74
2023/05/16 01:11:24;;;;;;;9.27;4.40;;;10.90;99.90;;;;;;5001108;28;20028;-74
2023/05/16 01:14:03;;;;;;;5.38;3.95;;;10.90;99.90;;;;;;4999583;28;20060;-74
2023/05/16 01:16:50;;;;;;;10.77;4.03;;;10.80;99.90;;;;;;5032189;28;20037;-74
2023/05/16 01:19:53;;;;;;;4.93;3.67;;;10.80;99.90;;;;;;5012312;28;20069;-74
2023/05/16 01:22:29;;;;;;;4.97;3.70;;;10.70;99.90;;;;;;5033177;28;20040;-74
2023/05/16 01:25:24;;;;;;;6.80;3.92;;;10.70;99.90;;;;;;4996324;28;20382;-74
2023/05/16 01:27:51;;;;;;;11.35;4.25;;;10.70;99.90;;;;;;5013957;28;20030;-74
2023/05/16 01:30:18;;;;;;;8.27;4.00;;;10.80;99.90;;;;;;4996463;28;20506;-74
2023/05/16 01:32:44;;;;;;;5.78;3.95;;;10.80;99.90;;;;;;5029848;28;20029;-75
2023/05/16 01:35:12;;;;;;;11.15;3.97;;;10.80;99.90;;;;;;4997830;28;20060;-74
2023/05/16 01:38:03;;;;;;;6.88;4.13;;;10.80;99.90;;;;;;4995823;28;20056;-74
2023/05/16 01:40:37;;;;;;;;;;;10.70;99.90;;;;;;5006639;28;20397;-74
2023/05/16 01:43:17;;;;;;;8.68;4.07;;;10.70;99.90;;;;;;5032580;28;19920;-74
2023/05/16 01:45:49;;;;;;;10.70;3.90;;;10.70;99.90;;;;;;5015337;28;20167;-74
2023/05/16 01:48:16;;;;;;;14.07;4.40;;;10.70;99.90;;;;;;4993736;28;20037;-74
2023/05/16 01:50:45;;;;;;;9.88;4.57;;;10.70;99.90;;;;;;5014819;28;20021;-73
2023/05/16 01:53:14;;;;;;;13.57;4.45;;;10.70;99.90;;;;;;4999175;28;20036;-75
2023/05/16 01:55:48;;;;;;;6.75;4.03;;;10.70;99.90;;;;;;4998016;28;20022;-74
2023/05/16 01:58:15;;;;;;;8.43;4.10;;;10.60;99.90;;;;;;5014643;28;20021;-74
2023/05/16 02:00:41;;;;;;;8.32;4.10;;;10.60;99.90;;;;;;4992725;28;20030;-74
2023/05/16 02:03:07;;;;;;;7.07;4.22;;;10.60;99.90;;;;;;5007775;28;20037;-75
2023/05/16 02:05:34;;;;;;;6.70;3.90;;;10.60;99.90;;;;;;5018273;28;20390;-74
2023/05/16 02:08:00;;;;;;;6.82;3.92;;;10.50;99.90;;;;;;5017044;28;20048;-74
2023/05/16 02:10:26;;;;;;;10.77;4.30;;;10.50;99.90;;;;;;5009113;28;20037;-75
2023/05/16 02:12:53;;;;;;;5.57;3.90;;;10.60;99.90;;;;;;5026321;28;20030;-74
2023/05/16 02:15:19;;;;;;;7.57;3.80;;;10.50;99.90;;;;;;4993085;28;20030;-74
2023/05/16 02:17:46;;;;;;;6.53;3.90;;;10.40;99.90;;;;;;4977971;28;20045;-74
2023/05/16 02:20:12;;;;;;;8.70;4.30;;;10.40;99.90;;;;;;5011272;28;20026;-74
2023/05/16 02:22:38;;;;;;;8.48;4.63;;;10.30;99.90;;;;;;5026050;28;20394;-74
2023/05/16 02:25:05;;;;;;;9.07;4.35;;;10.30;99.90;;;;;;5030802;28;20052;-74
2023/05/16 02:27:31;;;;;;;9.23;4.43;;;10.40;99.90;;;;;;5029870;28;20040;-74
2023/05/16 02:29:57;;;;;;;4.75;3.63;;;10.30;99.90;;;;;;5030419;28;20040;-74
2023/05/16 02:32:23;;;;;;;5.15;3.80;;;10.20;99.90;;;;;;5012569;28;20041;-74
2023/05/16 02:34:49;;;;;;;8.20;3.92;;;10.20;99.90;;;;;;5013275;28;20021;-74
2023/05/16 02:37:15;;;;;;;8.43;4.10;;;10.20;99.90;;;;;;5025339;28;20029;-74
2023/05/16 02:39:41;;;;;;;6.90;4.63;;;10.20;99.90;;;;;;5014699;28;20367;-75
2023/05/16 02:42:08;;;;;;;7.30;4.30;;;10.20;99.90;;;;;;5013032;28;20113;-74
2023/05/16 02:44:34;;;;;;;11.07;4.47;;;10.10;99.90;;;;;;5032008;28;20033;-75
2023/05/16 02:47:00;;;;;;;8.75;4.35;;;10.00;99.90;;;;;;5030990;28;20057;-75
2023/05/16 02:49:26;;;;;;;10.75;4.28;;;10.00;99.90;;;;;;5031596;28;20049;-75
2023/05/16 02:51:52;;;;;;;11.73;4.00;;;10.10;99.90;;;;;;5014260;28;20386;-75
2023/05/16 02:54:18;;;;;;;8.25;4.10;;;10.10;99.90;;;;;;5023245;28;20037;-74
2023/05/16 02:56:44;;;;;;;6.90;4.00;;;10.10;99.90;;;;;;5029025;28;20466;-75
2023/05/16 02:59:10;;;;;;;8.05;4.20;;;10.10;99.90;;;;;;5012632;28;20034;-75
2023/05/16 03:01:36;;;;;;;7.47;3.75;;;10.00;99.90;;;;;;5013701;28;20037;-75
2023/05/16 03:04:02;;;;;;;10.00;4.15;;;10.00;99.90;;;;;;4997999;28;20056;-75
2023/05/16 03:06:31;;;;;;;7.32;4.22;;;9.90;99.90;;;;;;5031510;28;20078;-75
2023/05/16 03:08:57;;;;;;;8.95;4.43;;;9.90;99.90;;;;;;5027721;28;20045;-75
2023/05/16 03:11:25;;;;;;;12.13;4.30;;;9.90;99.90;;;;;;5030734;28;20030;-75
2023/05/16 03:13:51;;;;;;;8.30;4.55;;;10.00;99.90;;;;;;5032846;28;20029;-75
2023/05/16 03:16:17;;;;;;;9.27;4.40;;;10.00;99.90;;;;;;5034827;28;20030;-75
2023/05/16 03:18:43;;;;;;;9.90;4.40;;;9.90;99.90;;;;;;5035840;28;20033;-75
2023/05/16 03:21:10;;;;;;;6.20;4.50;;;9.90;99.90;;;;;;5035444;28;20032;-75
2023/05/16 03:23:36;;;;;;;12.15;4.40;;;10.00;99.90;;;;;;5017570;28;20410;-75
2023/05/16 03:26:02;;;;;;;7.90;4.20;;;9.90;99.90;;;;;;5034554;28;20030;-75
2023/05/16 03:28:28;;;;;;;10.27;4.22;;;9.90;99.90;;;;;;5016728;28;20516;-75
2023/05/16 03:30:54;;;;;;;8.60;4.22;;;9.90;99.90;;;;;;5017136;28;20049;-75
2023/05/16 03:33:20;;;;;;;8.80;4.15;;;9.90;99.90;;;;;;5035502;28;20029;-75
2023/05/16 03:35:46;;;;;;;12.48;4.57;;;9.90;99.90;;;;;;5035079;28;20032;-75
2023/05/16 03:38:12;;;;;;;6.80;4.00;;;9.90;99.90;;;;;;5017918;28;20493;-75
2023/05/16 03:40:39;;;;;;;6.95;4.20;;;9.90;99.90;;;;;;4998180;28;20025;-75
2023/05/16 03:43:05;;;;;;;8.77;4.32;;;9.80;99.90;;;;;;5001172;28;20037;-75
2023/05/16 03:45:31;;;;;;;11.73;4.60;;;9.80;99.90;;;;;;5014581;28;20041;-75
2023/05/16 03:47:57;;;;;;;6.78;4.28;;;9.80;99.90;;;;;;5026700;28;20033;-75
2023/05/16 03:50:23;;;;;;;8.52;4.60;;;9.70;99.90;;;;;;5016318;28;20418;-75
2023/05/16 03:52:50;;;;;;;6.78;4.13;;;9.70;99.90;;;;;;5026983;28;20026;-75
2023/05/16 03:55:16;;;;;;;10.57;4.32;;;9.60;99.90;;;;;;4997180;28;20038;-75
2023/05/16 03:57:43;;;;;;;6.50;4.40;;;9.70;99.90;;;;;;5033538;28;20037;-75
2023/05/16 04:00:12;;;;;;;13.02;4.63;;;9.70;99.90;;;;;;5029149;28;20029;-75
2023/05/16 04:02:42;;;;;;;7.35;4.43;;;9.70;99.90;;;;;;5030738;28;20593;-75
2023/05/16 04:05:09;;;;;;;9.10;4.32;;;9.70;99.90;;;;;;5016739;28;20037;-75
2023/05/16 04:07:36;;;;;;;10.00;4.40;;;9.60;99.90;;;;;;5017086;28;20034;-75
2023/05/16 04:10:02;;;;;;;10.02;4.60;;;9.70;99.90;;;;;;5033241;28;20490;-75
2023/05/16 04:12:29;;;;;;;10.73;4.57;;;9.60;99.90;;;;;;5034039;28;20036;-75
2023/05/16 04:14:55;;;;;;;10.27;4.13;;;9.60;99.90;;;;;;5016264;28;20044;-75
2023/05/16 04:17:21;;;;;;;10.68;4.60;;;9.60;99.90;;;;;;5032968;28;20032;-75
2023/05/16 04:19:47;;;;;;;10.02;4.20;;;9.50;99.90;;;;;;5033368;28;20038;-75
2023/05/16 04:22:13;;;;;;;8.23;4.55;;;9.50;99.90;;;;;;5034070;28;20026;-75
2023/05/16 04:24:39;;;;;;;9.93;4.97;;;9.50;99.90;;;;;;5034047;28;20362;-75
2023/05/16 04:27:07;;;;;;;13.30;5.22;;;9.40;99.90;;;;;;5000732;28;20045;-75
2023/05/16 04:29:34;;;;;;;10.50;4.88;;;9.40;99.90;;;;;;4997323;28;20030;-75
2023/05/16 04:32:01;;;;;;;9.27;4.25;;;9.50;99.90;;;;;;4996613;28;20053;-75
2023/05/16 04:34:27;;;;;;;12.68;4.60;;;9.50;99.90;;;;;;5014353;28;20030;-75
2023/05/16 04:36:54;;;;;;;11.38;4.55;;;9.40;99.90;;;;;;5033956;28;20034;-75
2023/05/16 04:39:20;;;;;;;10.10;4.40;;;9.40;99.90;;;;;;5016010;28;20034;-75
2023/05/16 04:41:46;;;;;;;8.60;4.47;;;9.40;99.90;;;;;;5016304;28;20457;-75
2023/05/16 04:44:12;;;;;;;11.95;4.47;;;9.40;99.90;;;;;;5015885;28;20474;-75
2023/05/16 04:46:38;;;;;;;9.00;4.57;;;9.30;99.90;;;;;;5033018;28;20060;-75
2023/05/16 04:49:05;;;;;;;10.50;4.03;;;9.40;99.90;;;;;;5033392;28;20501;-75
2023/05/16 04:51:32;;;;;;;11.32;4.60;;;9.40;99.90;;;;;;4988331;28;20049;-75
2023/05/16 04:53:59;;;;;;;10.93;4.80;;;9.40;99.90;;;;;;5018134;28;20041;-75
2023/05/16 04:56:28;;;;;;;8.43;4.20;;;9.40;99.90;;;;;;5033599;28;20029;-75
2023/05/16 04:58:54;;;;;;;9.05;4.35;;;9.30;99.90;;;;;;5032957;28;20034;-75
2023/05/16 05:01:20;;;;;;;10.23;4.40;;;9.30;99.90;;;;;;5005858;28;20049;-75
2023/05/16 05:03:46;;;;;;;7.65;4.10;;;9.30;99.90;;;;;;5013978;28;20033;-74
2023/05/16 05:06:12;;;;;;;8.18;4.18;;;9.40;99.90;;;;;;5013641;28;20034;-75
2023/05/16 05:08:38;;;;;;;9.40;4.40;;;9.50;99.90;;;;;;5013659;28;20022;-75
2023/05/16 05:11:05;;;;;;;8.10;4.18;;;9.50;99.90;;;;;;5013649;28;20045;-75
2023/05/16 05:13:31;;;;;;;8.90;3.90;;;9.60;99.90;;;;;;5014867;28;20057;-75
2023/05/16 05:15:57;;;;;;;6.68;4.15;;;9.60;99.90;;;;;;5032903;28;20032;-75
2023/05/16 05:18:23;;;;;;;8.65;4.63;;;9.50;99.90;;;;;;5015782;28;20060;-75
2023/05/16 05:20:49;;;;;;;7.78;4.05;;;9.60;99.90;;;;;;5014721;28;20036;-75
2023/05/16 05:23:15;;;;;;;11.48;4.65;;;9.70;99.90;;;;;;5032237;28;20398;-75
2023/05/16 05:25:41;;;;;;;9.55;5.07;;;9.80;99.90;;;;;;5015395;28;20033;-75
2023/05/16 05:28:07;;;;;;;8.02;4.95;;;9.90;99.90;;;;;;5015242;28;20399;-76
2023/05/16 05:30:33;;;;;;;13.20;4.88;;;10.00;99.90;;;;;;5014784;28;20056;-75
2023/05/16 05:33:00;;;;;;;8.98;4.32;;;10.10;99.90;;;;;;5033173;28;20382;-75
2023/05/16 05:35:26;;;;;;;10.15;4.97;;;10.30;99.90;;;;;;5032890;28;20033;-75
2023/05/16 05:37:52;;;;;;;7.88;4.65;;;10.30;99.90;;;;;;5031722;28;20069;-75
2023/05/16 05:40:18;;;;;;;11.20;4.80;;;10.50;99.90;;;;;;5032760;28;20025;-75
2023/05/16 05:42:44;;;;;;;10.95;4.32;;;10.70;99.90;;;;;;5033107;28;20386;-75
2023/05/16 05:45:10;;;;;;;11.50;5.10;;;10.80;99.90;;;;;;5031131;28;20037;-76
2023/05/16 05:47:36;;;;;;;7.53;4.63;;;10.90;99.90;;;;;;5021627;28;20402;-76
2023/05/16 05:50:03;;;;;;;8.63;4.70;;;11.00;99.90;;;;;;5032914;28;20425;-75
2023/05/16 05:52:29;;;;;;;8.38;4.45;;;11.20;99.90;;;;;;4995863;28;20064;-75
2023/05/16 05:54:55;;;;;;;8.57;4.38;;;11.40;99.90;;;;;;5027455;28;20038;-76
2023/05/16 05:57:21;;;;;;;8.32;4.10;;;11.40;99.90;;;;;;5032532;28;20371;-76
2023/05/16 05:59:47;;;;;;;9.40;4.07;;;11.60;99.90;;;;;;5031732;28;20033;-76
2023/05/16 06:02:13;;;;;;;7.60;4.07;;;11.60;99.90;;;;;;5025888;28;20457;-76
2023/05/16 06:04:41;;;;;;;9.98;4.03;;;11.60;99.90;;;;;;5032387;28;20029;-76
2023/05/16 06:07:07;;;;;;;5.57;4.70;;;11.60;99.90;;;;;;5028225;28;20044;-75
2023/05/16 06:09:33;;;;;;;9.18;4.20;;;11.80;99.90;;;;;;4992322;28;20056;-76
2023/05/16 06:12:00;;;;;;;7.78;4.10;;;11.90;99.90;;;;;;5029385;28;20354;-76
2023/05/16 06:14:26;;;;;;;4.28;3.60;;;12.00;99.90;;;;;;5030353;28;20036;-75
2023/05/16 06:16:52;;;;;;;10.23;4.13;;;12.00;99.90;;;;;;5029962;28;20505;-76
2023/05/16 06:19:18;;;;;;;8.23;4.30;;;11.90;99.90;;;;;;5028055;28;20037;-76
2023/05/16 06:21:44;;;;;;;8.00;3.92;;;12.10;99.90;;;;;;5030128;28;20037;-75
2023/05/16 06:24:11;;;;;;;9.77;3.90;;;12.20;99.90;;;;;;4997135;28;20030;-76
2023/05/16 06:26:37;;;;;;;7.05;3.95;;;12.40;99.90;;;;;;5025793;28;20037;-76
2023/05/16 06:29:03;;;;;;;6.70;3.58;;;12.40;99.90;;;;;;5011494;28;20045;-76
2023/05/16 06:31:30;;;;;;;9.93;4.15;;;12.50;99.90;;;;;;5031480;28;20041;-76
2023/05/16 06:33:56;;;;;;;9.63;3.85;;;12.60;99.90;;;;;;5014696;28;20029;-75
2023/05/16 06:36:22;;;;;;;7.45;4.07;;;12.70;99.90;;;;;;5009869;28;20390;-75
2023/05/16 06:38:49;;;;;;;6.85;3.90;;;12.80;99.90;;;;;;5012009;28;20030;-75
2023/05/16 06:41:15;;;;;;;10.07;3.83;;;12.80;99.90;;;;;;5030811;28;20104;-74
2023/05/16 06:43:41;;;;;;;8.95;4.53;;;12.90;99.90;;;;;;5031305;28;20060;-75
2023/05/16 06:46:07;;;;;;;11.40;4.50;;;13.00;99.90;;;;;;5030393;28;20053;-75
2023/05/16 06:48:33;;;;;;;10.13;4.22;;;13.00;99.90;;;;;;5031320;28;20059;-75
2023/05/16 06:50:59;;;;;;;6.47;3.90;;;13.00;99.90;;;;;;5032975;28;20041;-74
2023/05/16 06:53:26;;;;;;;7.20;4.10;;;13.00;99.90;;;;;;5014449;28;20048;-74
2023/05/16 06:55:52;;;;;;;8.10;4.00;;;13.00;99.90;;;;;;5034181;28;20048;-74
2023/05/16 06:58:18;;;;;;;5.40;3.30;;;13.00;99.90;;;;;;5001748;28;20040;-74
2023/05/16 07:00:44;;;;;;;7.28;4.20;;;13.20;99.90;;;;;;5030044;28;20041;-74
2023/05/16 07:03:10;;;;;;;16.55;5.03;;;13.40;99.90;;;;;;5032561;28;20474;-74
2023/05/16 07:05:36;;;;;;;5.68;4.22;;;13.60;99.90;;;;;;5015726;28;20045;-75
2023/05/16 07:08:02;;;;;;;7.50;3.92;;;13.70;99.90;;;;;;5035553;28;20025;-74
2023/05/16 07:10:28;;;;;;;7.32;4.20;;;13.70;99.90;;;;;;5034455;28;20037;-74
2023/05/16 07:12:55;;;;;;;4.72;3.80;;;13.80;99.90;;;;;;5015557;28;20034;-75
2023/05/16 07:15:21;;;;;;;6.43;4.05;;;13.80;99.90;;;;;;5034946;28;20037;-74
2023/05/16 07:17:47;;;;;;;7.43;3.83;;;13.90;99.90;;;;;;5035588;28;20458;-74
2023/05/16 07:20:13;;;;;;;12.25;4.20;;;13.90;99.90;;;;;;5034736;28;20033;-74
2023/05/16 07:22:39;;;;;;;11.82;4.03;;;13.90;99.90;;;;;;5034083;28;20021;-74
2023/05/16 07:25:11;;;;;;;9.20;3.65;;;14.00;99.90;;;;;;5034290;28;20044;-74
2023/05/16 07:27:43;;;;;;;;;;;14.00;99.90;;;;;;5035237;28;20049;-74
2023/05/16 07:30:10;;;;;;;6.97;3.40;;;14.20;99.90;;;;;;5015302;28;19917;-75
2023/05/16 07:32:36;;;;;;;6.43;3.70;;;14.20;99.90;;;;;;5035288;28;20029;-74
2023/05/16 07:35:03;;;;;;;9.73;4.40;;;14.30;99.90;;;;;;5016933;28;20037;-74
2023/05/16 07:37:29;;;;;;;9.20;4.15;;;14.30;99.90;;;;;;5034090;28;20042;-74
2023/05/16 07:39:55;;;;;;;7.45;4.00;;;14.50;99.90;;;;;;5034827;28;20033;-74
2023/05/16 07:42:21;;;;;;;10.90;3.97;;;14.70;99.90;;;;;;4995811;28;20033;-74
2023/05/16 07:44:47;;;;;;;6.57;3.47;;;14.60;99.90;;;;;;5030839;28;20029;-74
2023/05/16 07:47:14;;;;;;;12.93;4.15;;;14.60;99.90;;;;;;5030404;28;20041;-75
2023/05/16 07:49:40;;;;;;;8.82;4.18;;;14.70;99.90;;;;;;5033983;28;20033;-75
2023/05/16 07:52:06;;;;;;;10.55;4.00;;;14.80;99.90;;;;;;5016306;28;20037;-74
2023/05/16 07:54:33;;;;;;;7.68;4.20;;;15.00;99.90;;;;;;5033837;28;20029;-74
2023/05/16 07:57:00;;;;;;;5.18;3.85;;;15.20;99.90;;;;;;5014497;28;20033;-74
2023/05/16 07:59:27;;;;;;;6.85;5.63;;;15.30;99.90;;;;;;5000744;28;20036;-74
2023/05/16 08:01:54;;;;;;;8.18;3.95;;;15.20;99.90;;;;;;5011671;28;20041;-75
2023/05/16 08:04:20;;;;;;;10.55;3.95;;;15.20;99.90;;;;;;5023594;28;20029;-74
2023/05/16 08:06:46;;;;;;;5.50;3.47;;;15.10;99.90;;;;;;5033561;28;20052;-75
2023/05/16 08:09:12;;;;;;;11.85;4.93;;;15.30;99.90;;;;;;5032520;28;20425;-74
2023/05/16 08:11:38;;;;;;;9.10;4.30;;;15.50;99.90;;;;;;5026926;28;20033;-74
2023/05/16 08:14:05;;;;;;;7.22;4.43;;;15.60;99.90;;;;;;5015684;28;20036;-74
2023/05/16 08:16:31;;;;;;;13.25;4.10;;;15.70;99.90;;;;;;5032937;28;20045;-75
2023/05/16 08:18:57;;;;;;;12.10;4.60;;;15.70;99.90;;;;;;5030179;28;20029;-74
2023/05/16 08:21:23;;;;;;;9.98;4.40;;;15.80;99.90;;;;;;5030575;28;20040;-75
2023/05/16 08:23:49;;;;;;;7.45;4.57;;;15.90;99.90;;;;;;5016945;28;20022;-74
2023/05/16 08:26:17;;;;;;;10.32;4.47;;;15.80;99.90;;;;;;5034142;28;20032;-73
2023/05/16 08:28:43;;;;;;;7.60;4.07;;;15.70;99.90;;;;;;5032990;28;20389;-74
2023/05/16 08:31:09;;;;;;;4.55;3.85;;;15.50;99.90;;;;;;5015242;28;20486;-73
2023/05/16 08:33:35;;;;;;;11.80;4.38;;;15.80;99.90;;;;;;5031261;28;20033;-74
2023/05/16 08:36:01;;;;;;;9.55;6.50;;;15.60;99.90;;;;;;5028638;28;20506;-74
2023/05/16 08:38:28;;;;;;;7.03;4.95;;;15.70;99.90;;;;;;5011268;28;20041;-74
2023/05/16 08:40:54;;;;;;;7.18;4.90;;;15.80;99.90;;;;;;5015038;28;20025;-73
2023/05/16 08:43:20;;;;;;;11.25;4.70;;;15.70;99.90;;;;;;5011815;28;20036;-74
2023/05/16 08:45:46;;;;;;;6.95;4.60;;;16.00;99.90;;;;;;5011589;28;20046;-73
2023/05/16 08:48:12;;;;;;;7.85;5.32;;;16.20;99.90;;;;;;5015606;28;20052;-74
2023/05/16 08:50:38;;;;;;;8.30;5.15;;;16.30;99.90;;;;;;4996112;28;20033;-74
2023/05/16 08:53:06;;;;;;;9.07;6.30;;;16.50;99.90;;;;;;4980904;28;20046;-74
2023/05/16 08:55:33;;;;;;;10.00;6.07;;;16.70;99.90;;;;;;5013694;28;20038;-74
2023/05/16 08:57:59;;;;;;;9.07;6.72;;;16.70;99.90;;;;;;5001156;28;20386;-74
2023/05/16 09:00:26;;;;;;;6.80;6.00;;;16.60;99.90;;;;;;5013066;28;20034;-74
2023/05/16 09:02:52;;;;;;;10.30;5.47;;;16.40;99.90;;;;;;5033616;28;20045;-74
2023/05/16 09:05:18;;;;;;;8.85;5.55;;;16.40;99.90;;;;;;5033802;28;20028;-74
2023/05/16 09:07:44;;;;;;;11.85;5.68;;;16.40;99.90;;;;;;5033554;28;20041;-74
2023/05/16 09:10:11;;;;;;;8.70;5.75;;;16.50;99.90;;;;;;5033317;28;20462;-74
2023/05/16 09:12:40;;;;;;;7.40;6.03;;;16.70;99.90;;;;;;5026087;28;20658;-74
2023/05/16 09:15:07;;;;;;;6.75;5.50;;;16.80;99.90;;;;;;5028245;28;20041;-74
2023/05/16 09:17:44;;;;;;;7.28;5.63;;;16.90;99.90;;;;;;5015587;28;20022;-74
2023/05/16 09:20:14;;;;;;;12.18;5.80;;;17.10;99.90;;;;;;4999213;28;20038;-75
2023/05/16 09:22:49;;;;;;;6.50;5.87;;;17.10;99.90;;;;;;5003188;28;20033;-73
2023/05/16 09:25:19;;;;;;;10.57;7.28;;;17.00;99.90;;;;;;5030268;28;20032;-74
2023/05/16 09:27:47;;;;;;;6.90;6.25;;;16.90;99.90;;;;;;5013368;28;20035;-71
2023/05/16 09:30:15;;;;;;;8.50;6.50;;;17.00;99.90;;;;;;5025864;28;20049;-74
2023/05/16 09:32:44;;;;;;;7.05;6.38;;;17.20;99.90;;;;;;5012928;28;20042;-74
2023/05/16 09:35:15;;;;;;;6.80;6.20;;;17.20;99.90;;;;;;5015318;28;20414;-74
2023/05/16 09:37:45;;;;;;;11.05;6.53;;;17.20;99.90;;;;;;5014996;28;20559;-74
2023/05/16 09:40:12;;;;;;;9.98;6.70;;;17.10;99.90;;;;;;5032644;28;20034;-74
2023/05/16 09:42:38;;;;;;;7.32;6.18;;;17.10;99.90;;;;;;5014429;28;20042;-74
2023/05/16 09:45:05;;;;;;;7.03;6.43;;;16.90;99.90;;;;;;4996079;28;20037;-74
2023/05/16 09:47:31;;;;;;;6.70;6.10;;;16.60;99.90;;;;;;5014610;28;20605;-74
2023/05/16 09:49:57;;;;;;;7.60;6.45;;;16.80;99.90;;;;;;5015291;28;20041;-74
2023/05/16 09:52:26;;;;;;;6.00;5.53;;;16.70;99.90;;;;;;4997146;28;20034;-74
2023/05/16 09:54:53;;;;;;;6.63;5.82;;;16.60;99.90;;;;;;4991094;28;20497;-75
2023/05/16 09:57:20;;;;;;;6.68;5.95;;;16.40;99.90;;;;;;5003765;28;20034;-74
2023/05/16 09:59:46;;;;;;;7.03;6.63;;;16.50;99.90;;;;;;5025710;28;20038;-74
2023/05/16 10:02:13;;;;;;;7.13;6.40;;;16.70;99.90;;;;;;5028922;28;20040;-74
2023/05/16 10:04:39;;;;;;;7.70;7.00;;;16.90;99.90;;;;;;5014148;28;20037;-74
2023/05/16 10:07:08;;;;;;;7.32;6.72;;;17.20;99.90;;;;;;5014718;28;20025;-74
2023/05/16 10:09:36;;;;;;;6.65;6.05;;;17.30;99.90;;;;;;5031063;28;20045;-74
2023/05/16 10:12:04;;;;;;;8.00;6.75;;;17.10;99.90;;;;;;4983049;28;20046;-74
2023/05/16 10:14:33;;;;;;;9.68;6.63;;;16.90;99.90;;;;;;5020191;28;20032;-74
2023/05/16 10:16:59;;;;;;;7.68;6.68;;;17.00;99.90;;;;;;5020574;28;20112;-74
2023/05/16 10:19:26;;;;;;;6.82;6.22;;;16.90;99.90;;;;;;5026726;28;20048;-74
2023/05/16 10:21:53;;;;;;;8.48;6.75;;;16.80;99.90;;;;;;5022555;28;20059;-74
2023/05/16 10:24:23;;;;;;;8.05;6.32;;;16.70;99.90;;;;;;4997235;28;20056;-74
2023/05/16 10:26:50;;;;;;;7.25;6.57;;;16.80;99.90;;;;;;5013270;28;20044;-74
2023/05/16 10:29:17;;;;;;;7.70;6.32;;;17.10;99.90;;;;;;5014363;28;20018;-74
2023/05/16 10:31:43;;;;;;;7.15;6.55;;;17.00;99.90;;;;;;5013436;28;20045;-74
2023/05/16 10:34:09;;;;;;;9.43;6.85;;;16.80;99.90;;;;;;4997796;28;20466;-74
2023/05/16 10:36:35;;;;;;;10.63;6.28;;;16.70;99.90;;;;;;5013578;28;20036;-74
2023/05/16 10:39:02;;;;;;;6.75;6.15;;;16.60;99.90;;;;;;4978390;28;20037;-74
2023/05/16 10:41:28;;;;;;;6.28;5.57;;;16.50;99.90;;;;;;5008871;28;20021;-74
2023/05/16 10:43:56;;;;;;;6.28;5.68;;;16.40;99.90;;;;;;4997146;28;20036;-74
2023/05/16 10:46:22;;;;;;;10.10;6.70;;;16.50;99.90;;;;;;5020412;28;20402;-73
2023/05/16 10:48:48;;;;;;;10.23;6.57;;;16.50;99.90;;;;;;5025142;28;20041;-73
2023/05/16 10:51:21;;;;;;;8.13;6.10;;;16.70;99.90;;;;;;5012111;28;20041;-74
2023/05/16 10:53:47;;;;;;;7.95;6.03;;;16.60;99.90;;;;;;5030502;28;20029;-74
2023/05/16 10:56:13;;;;;;;7.55;6.30;;;16.70;99.90;;;;;;5027016;28;20040;-74
2023/05/16 10:58:42;;;;;;;7.18;6.53;;;16.70;99.90;;;;;;5012185;28;20374;-74
2023/05/16 11:01:21;;;;;;;9.30;6.78;;;16.80;99.90;;;;;;5025529;28;20394;-74
2023/05/16 11:03:56;;;;;;;7.22;6.63;;;16.80;99.90;;;;;;5030887;28;20124;-74
2023/05/16 11:06:40;;;;;;;7.45;6.38;;;16.80;99.90;;;;;;5021288;28;20032;-74
2023/05/16 11:09:16;;;;;;;7.57;6.43;;;16.90;99.90;;;;;;5030994;28;20498;-74
2023/05/16 11:11:51;;;;;;;6.78;6.28;;;17.20;99.90;;;;;;5028675;28;20576;-74
2023/05/16 11:14:38;;;;;;;7.28;6.78;;;17.50;99.90;;;;;;5011748;28;20029;-73
2023/05/16 11:17:13;;;;;;;7.47;6.88;;;17.60;99.70;;;;;;5016356;28;20585;-74
2023/05/16 11:19:47;;;;;;;7.85;7.07;;;17.80;98.80;;;;;;5029679;28;20082;-74
2023/05/16 11:22:23;;;;;;;8.20;7.57;;;17.80;99.30;;;;;;5028552;28;20030;-74
2023/05/16 11:24:52;;;;;;;7.35;6.85;;;18.00;97.80;;;;;;5023841;28;20037;-74
2023/05/16 11:27:32;;;;;;;7.00;6.40;;;18.00;96.50;;;;;;5024209;28;20398;-74
2023/05/16 11:30:04;;;;;;;7.25;6.65;;;18.10;97.00;;;;;;5012909;28;20028;-74
2023/05/16 11:32:32;;;;;;;7.80;7.20;;;18.20;96.20;;;;;;5005354;28;20042;-74
2023/05/16 11:34:58;;;;;;;8.00;7.25;;;18.20;96.60;;;;;;5010331;28;20021;-74
2023/05/16 11:37:24;;;;;;;7.97;7.28;;;18.30;96.70;;;;;;5023794;28;20033;-74
2023/05/16 11:39:50;;;;;;;7.80;7.28;;;18.50;97.20;;;;;;5030800;28;20033;-74
2023/05/16 11:42:16;;;;;;;7.68;7.07;;;18.70;96.50;;;;;;5009119;28;20469;-75
2023/05/16 11:44:43;;;;;;;10.45;7.50;;;18.70;96.60;;;;;;5034696;28;20030;-74
2023/05/16 11:47:10;;;;;;;8.10;7.50;;;18.60;95.60;;;;;;5030667;28;20520;-74
2023/05/16 11:49:36;;;;;;;7.82;7.28;;;18.60;96.20;;;;;;5014399;28;20048;-74
2023/05/16 11:52:02;;;;;;;7.78;6.97;;;18.70;96.10;;;;;;4994161;28;20045;-74
2023/05/16 11:54:29;;;;;;;8.35;7.40;;;18.60;96.20;;;;;;5012476;28;20034;-74
2023/05/16 11:56:55;;;;;;;7.55;6.95;;;18.80;96.40;;;;;;5030542;28;20026;-73
2023/05/16 11:59:21;;;;;;;10.10;9.23;;;19.00;95.20;;;;;;5014274;28;20025;-74
2023/05/16 12:01:48;;;;;;;7.35;6.88;;;19.00;93.80;;;;;;4998145;28;20052;-74
2023/05/16 12:04:15;;;;;;;8.00;7.05;;;18.70;94.20;;;;;;5033298;28;20025;-74
2023/05/16 12:06:46;;;;;;;7.47;6.82;;;18.80;93.70;;;;;;5014539;28;20033;-74
2023/05/16 12:09:13;;;;;;;;;;;18.80;94.10;;;;;;5033691;28;20037;-73
2023/05/16 12:11:39;;;;;;;7.43;6.93;;;19.10;94.00;;;;;;5013614;28;20397;-74
2023/05/16 12:14:09;;;;;;;8.15;7.32;;;19.00;94.00;;;;;;5015992;28;20377;-74
2023/05/16 12:16:36;;;;;;;10.20;6.75;;;19.10;94.50;;;;;;5014445;28;20409;-74
2023/05/16 12:19:03;;;;;;;8.10;7.35;;;19.30;94.80;;;;;;4998972;28;20070;-74
2023/05/16 12:21:30;;;;;;;7.15;6.72;;;19.10;94.20;;;;;;5014517;28;20040;-73
2023/05/16 12:23:59;;;;;;;7.95;7.35;;;19.20;94.30;;;;;;5014899;28;20037;-74
2023/05/16 12:26:27;;;;;;;9.57;7.63;;;19.30;93.40;;;;;;4999758;28;20029;-74
2023/05/16 12:28:56;;;;;;;7.68;7.15;;;19.40;93.70;;;;;;5000175;28;20064;-74
2023/05/16 12:31:22;;;;;;;7.90;7.30;;;19.40;93.50;;;;;;5028087;28;20041;-74
2023/05/16 12:33:52;;;;;;;8.60;7.85;;;19.40;93.80;;;;;;4999159;28;20041;-74
2023/05/16 12:36:18;;;;;;;7.20;6.70;;;19.50;93.00;;;;;;5031355;28;20034;-74
2023/05/16 12:38:48;;;;;;;8.25;7.47;;;19.40;92.00;;;;;;5014729;28;20025;-74
2023/05/16 12:41:23;;;;;;;8.73;8.07;;;18.90;92.00;;;;;;5011274;28;20036;-74
2023/05/16 12:43:49;;;;;;;7.13;6.53;;;19.10;92.70;;;;;;5032102;28;20478;-74
2023/05/16 12:46:16;;;;;;;8.13;7.43;;;19.20;93.30;;;;;;5029823;28;20050;-74
2023/05/16 12:48:43;;;;;;;8.00;7.28;;;19.30;92.70;;;;;;5015121;28;20052;-74